Time;durP1;ratioP1;P1;durP2;ratioP2;P2;SDS_P1;SDS_P2;PMS_P1;PMS_P2;Temp;Humidity;BMP_temperature;BMP_pressure;BME280_temperature;BME280_humidity;BME280_pressure;Samples;Min_cycle;Max_cycle;Signal;HPM_P1;HPM_P2
2022/08/24 00:00:06;;;;;;;0.20;0.20;;;26.60;65.60;;;;;;3909938;30;20051;-69
2022/08/24 00:02:47;;;;;;;0.20;0.20;;;26.60;65.60;;;;;;3901173;30;20385;-69
2022/08/24 00:05:28;;;;;;;;;;;26.60;66.70;;;;;;3912918;30;20109;-69
2022/08/24 00:08:10;;;;;;;0.22;0.22;;;26.60;65.60;;;;;;3912318;30;20019;-70
2022/08/24 00:10:51;;;;;;;0.57;0.57;;;26.50;65.60;;;;;;3912385;30;20203;-69
2022/08/24 00:13:33;;;;;;;0.00;0.00;;;26.60;65.80;;;;;;3912011;30;20146;-69
2022/08/24 00:16:16;;;;;;;0.22;0.22;;;26.50;65.80;;;;;;3912393;30;20084;-69
2022/08/24 00:18:59;;;;;;;1.48;1.45;;;26.50;65.80;;;;;;3901532;30;20643;-70
2022/08/24 00:21:40;;;;;;;0.88;0.88;;;26.50;65.70;;;;;;3912219;30;20110;-69
2022/08/24 00:24:23;;;;;;;;;;;26.50;65.70;;;;;;3912123;30;20059;-70
2022/08/24 00:27:05;;;;;;;0.15;0.15;;;26.50;65.80;;;;;;3911864;30;20523;-69
2022/08/24 00:29:46;;;;;;;0.10;0.10;;;26.50;65.80;;;;;;3911877;30;20067;-67
2022/08/24 00:32:28;;;;;;;0.47;0.47;;;26.50;65.90;;;;;;3893241;30;20640;-69
2022/08/24 00:35:11;;;;;;;0.70;0.70;;;26.50;65.90;;;;;;3912068;30;20051;-69
2022/08/24 00:37:53;;;;;;;0.73;0.73;;;26.50;66.00;;;;;;3911488;30;20056;-70
2022/08/24 00:40:39;;;;;;;0.25;0.25;;;26.50;66.10;;;;;;3912182;30;20064;-69
2022/08/24 00:43:25;;;;;;;0.00;0.00;;;26.50;66.00;;;;;;3911525;30;20516;-69
2022/08/24 00:46:14;;;;;;;0.00;0.00;;;26.50;66.10;;;;;;3910317;30;20056;-69
2022/08/24 00:49:02;;;;;;;0.10;0.10;;;26.50;66.30;;;;;;3894336;30;20659;-68
2022/08/24 00:51:50;;;;;;;0.50;0.50;;;26.50;66.20;;;;;;3901073;30;20064;-69
2022/08/24 00:54:34;;;;;;;0.00;0.00;;;26.40;66.20;;;;;;3911144;30;20078;-69
2022/08/24 00:57:22;;;;;;;0.10;0.10;;;26.40;66.20;;;;;;3900645;30;20205;-69
2022/08/24 01:00:08;;;;;;;0.30;0.30;;;26.40;66.30;;;;;;3911501;30;20167;-70
2022/08/24 01:02:52;;;;;;;0.55;0.55;;;26.50;66.40;;;;;;3901139;30;20067;-69
2022/08/24 01:05:36;;;;;;;0.55;0.55;;;26.40;66.30;;;;;;3899115;30;20145;-70
2022/08/24 01:08:17;;;;;;;1.02;1.02;;;26.40;66.30;;;;;;3899471;30;20138;-69
2022/08/24 01:11:12;;;;;;;0.47;0.47;;;26.40;66.40;;;;;;3910742;30;20133;-69
2022/08/24 01:13:57;;;;;;;1.20;1.15;;;26.40;66.50;;;;;;3911426;30;20542;-69
2022/08/24 01:19:39;;;;;;;1.92;1.83;;;26.40;66.50;;;;;;3900479;30;20083;-69
2022/08/24 01:22:53;;;;;;;0.47;0.47;;;26.30;66.50;;;;;;3877617;30;20615;-69
2022/08/24 01:25:36;;;;;;;0.10;0.10;;;26.40;66.70;;;;;;3875488;30;20433;-69
2022/08/24 01:28:26;;;;;;;0.30;0.30;;;26.30;66.60;;;;;;3899648;30;20540;-69
2022/08/24 01:31:08;;;;;;;0.05;0.05;;;26.30;66.70;;;;;;3891487;30;20117;-69
2022/08/24 01:33:53;;;;;;;0.00;0.00;;;26.30;66.80;;;;;;3898413;30;20070;-69
2022/08/24 01:36:37;;;;;;;2.45;0.80;;;26.30;66.80;;;;;;3913791;30;20072;-70
2022/08/24 01:39:24;;;;;;;0.20;0.20;;;26.30;66.80;;;;;;3912914;30;20063;-69
2022/08/24 01:42:06;;;;;;;0.30;0.30;;;26.30;67.70;;;;;;3902514;30;20080;-69
2022/08/24 01:44:48;;;;;;;1.25;1.25;;;26.30;66.80;;;;;;3912232;30;20409;-69
2022/08/24 01:47:29;;;;;;;5.75;2.58;;;26.30;66.80;;;;;;3913263;30;20097;-69
2022/08/24 01:50:11;;;;;;;0.00;0.00;;;26.30;66.80;;;;;;3881369;30;20572;-69
2022/08/24 01:53:05;;;;;;;0.30;0.30;;;26.30;66.80;;;;;;3912717;30;20484;-69
2022/08/24 01:55:51;;;;;;;0.20;0.20;;;26.30;66.80;;;;;;3893666;30;20122;-69
2022/08/24 01:58:34;;;;;;;0.75;0.75;;;26.30;66.80;;;;;;3884330;30;20146;-69
2022/08/24 02:01:19;;;;;;;3.20;0.80;;;26.30;66.90;;;;;;3929109;30;20055;-69
2022/08/24 02:04:04;;;;;;;0.63;0.63;;;26.20;66.80;;;;;;3897672;30;20064;-69
2022/08/24 02:06:46;;;;;;;0.55;0.55;;;26.20;66.80;;;;;;3887415;30;20052;-69
2022/08/24 02:09:29;;;;;;;0.22;0.22;;;26.20;66.70;;;;;;3898257;30;20137;-69
2022/08/24 02:12:12;;;;;;;1.30;1.20;;;26.20;66.80;;;;;;3901944;30;20091;-69
2022/08/24 02:15:01;;;;;;;0.47;0.47;;;26.20;66.80;;;;;;3901851;30;20059;-69
2022/08/24 02:17:42;;;;;;;0.30;0.30;;;26.20;66.90;;;;;;3912340;30;20068;-69
2022/08/24 02:20:28;;;;;;;3.03;1.23;;;26.20;66.90;;;;;;3894679;30;20137;-69
2022/08/24 02:23:08;;;;;;;0.38;0.38;;;26.20;67.00;;;;;;3902981;30;20421;-69
2022/08/24 02:25:50;;;;;;;0.10;0.10;;;26.10;66.90;;;;;;3887579;30;20142;-68
2022/08/24 02:28:31;;;;;;;0.20;0.20;;;26.20;67.10;;;;;;3898476;30;20521;-68
2022/08/24 02:31:14;;;;;;;0.70;0.70;;;26.10;67.10;;;;;;3913115;30;20067;-68
2022/08/24 02:33:58;;;;;;;0.00;0.00;;;26.10;67.10;;;;;;3892653;30;20071;-68
2022/08/24 02:36:39;;;;;;;0.00;0.00;;;26.10;67.10;;;;;;3902451;30;20411;-69
2022/08/24 02:39:20;;;;;;;;;;;26.10;67.20;;;;;;3901951;30;20809;-68
2022/08/24 02:42:04;;;;;;;0.08;0.08;;;26.10;67.20;;;;;;3902650;30;19934;-69
2022/08/24 02:44:44;;;;;;;;;;;26.10;67.20;;;;;;3913387;30;20059;-68
2022/08/24 02:47:27;;;;;;;0.55;0.55;;;26.00;67.10;;;;;;3901120;30;19932;-69
2022/08/24 02:50:18;;;;;;;5.00;2.17;;;26.00;67.10;;;;;;3912063;30;20056;-69
2022/08/24 02:53:03;;;;;;;0.40;0.40;;;26.00;67.30;;;;;;3911428;30;20068;-69
2022/08/24 02:55:44;;;;;;;1.83;0.43;;;26.00;67.30;;;;;;3893999;30;20072;-69
2022/08/24 02:58:28;;;;;;;0.03;0.03;;;26.00;67.40;;;;;;3885806;30;20060;-68
2022/08/24 03:01:13;;;;;;;0.80;0.80;;;26.00;67.40;;;;;;3911946;30;20508;-68
2022/08/24 03:04:02;;;;;;;0.82;0.82;;;26.00;67.40;;;;;;3901052;30;20091;-68
2022/08/24 03:06:43;;;;;;;0.10;0.10;;;26.00;67.40;;;;;;3893255;30;20111;-69
2022/08/24 03:09:24;;;;;;;2.40;0.88;;;26.00;67.40;;;;;;3905343;30;20056;-69
2022/08/24 03:12:07;;;;;;;0.38;0.38;;;26.00;67.40;;;;;;3873613;30;20059;-69
2022/08/24 03:14:49;;;;;;;0.57;0.57;;;26.00;67.40;;;;;;3864868;30;20069;-69
2022/08/24 03:17:32;;;;;;;0.80;0.80;;;26.00;67.40;;;;;;3891954;30;20626;-69
2022/08/24 03:20:17;;;;;;;0.32;0.32;;;25.90;67.40;;;;;;3874267;30;20187;-69
2022/08/24 03:22:58;;;;;;;0.98;0.98;;;26.00;67.40;;;;;;3896878;30;20060;-69
2022/08/24 03:25:39;;;;;;;0.68;0.68;;;25.90;67.30;;;;;;3887109;30;20138;-68
2022/08/24 03:28:22;;;;;;;0.70;0.70;;;25.90;67.40;;;;;;3898017;30;20134;-69
2022/08/24 03:31:03;;;;;;;0.63;0.63;;;25.90;67.30;;;;;;3884342;30;20117;-68
2022/08/24 03:33:44;;;;;;;;;;;25.90;67.30;;;;;;3887690;30;20068;-68
2022/08/24 03:36:26;;;;;;;0.00;0.00;;;25.90;67.30;;;;;;3895907;30;19938;-69
2022/08/24 03:39:08;;;;;;;0.15;0.15;;;25.90;67.30;;;;;;3897258;30;20076;-69
2022/08/24 03:41:49;;;;;;;0.30;0.30;;;25.90;67.30;;;;;;3897098;30;20521;-68
2022/08/24 03:44:32;;;;;;;0.52;0.52;;;25.90;67.40;;;;;;3886950;30;20067;-68
2022/08/24 03:47:13;;;;;;;0.10;0.10;;;25.90;67.30;;;;;;3896622;30;20060;-69
2022/08/24 03:49:55;;;;;;;3.05;0.75;;;25.90;67.40;;;;;;3896788;30;20072;-68
2022/08/24 03:52:37;;;;;;;0.38;0.38;;;25.90;67.40;;;;;;3898618;30;20584;-68
2022/08/24 03:55:21;;;;;;;0.28;0.28;;;25.80;67.30;;;;;;3907063;30;20065;-69
2022/08/24 03:58:02;;;;;;;1.38;0.93;;;25.90;67.40;;;;;;3897159;30;20093;-69
2022/08/24 04:00:44;;;;;;;1.17;1.17;;;25.90;67.40;;;;;;3871033;30;20063;-68
2022/08/24 04:03:27;;;;;;;1.13;1.13;;;25.90;67.40;;;;;;3886981;30;20110;-67
2022/08/24 04:06:09;;;;;;;0.10;0.10;;;25.90;67.40;;;;;;3886989;30;20492;-68
2022/08/24 04:08:53;;;;;;;0.60;0.60;;;25.80;67.30;;;;;;3896865;30;20089;-68
2022/08/24 04:11:34;;;;;;;0.88;0.82;;;25.80;67.40;;;;;;3887057;30;20524;-68
2022/08/24 04:14:19;;;;;;;0.20;0.20;;;25.80;67.40;;;;;;3897388;30;20060;-68
2022/08/24 04:17:12;;;;;;;0.00;0.00;;;25.80;67.30;;;;;;3887000;30;20060;-68
2022/08/24 04:19:59;;;;;;;0.80;0.80;;;25.80;67.40;;;;;;3907098;30;20464;-68
2022/08/24 04:22:43;;;;;;;0.25;0.25;;;25.80;67.40;;;;;;3896848;30;20060;-68
2022/08/24 04:25:25;;;;;;;;;;;25.80;67.40;;;;;;3887443;30;20060;-68
2022/08/24 04:28:06;;;;;;;0.20;0.20;;;25.80;67.30;;;;;;3902756;30;19954;-67
2022/08/24 04:30:49;;;;;;;0.10;0.10;;;25.80;68.20;;;;;;3894400;30;20191;-68
2022/08/24 04:33:41;;;;;;;0.43;0.43;;;25.80;67.40;;;;;;3896854;30;20127;-67
2022/08/24 04:36:23;;;;;;;0.00;0.00;;;25.70;67.40;;;;;;3896304;30;20063;-68
2022/08/24 04:39:04;;;;;;;;;;;25.70;67.40;;;;;;3887016;30;20438;-69
2022/08/24 04:42:16;;;;;;;0.32;0.22;;;25.70;67.50;;;;;;3897432;30;19972;-69
2022/08/24 04:44:58;;;;;;;0.10;0.10;;;25.70;67.40;;;;;;3886384;30;20186;-69
2022/08/24 04:47:39;;;;;;;3.33;0.98;;;25.70;67.50;;;;;;3896031;30;20195;-69
2022/08/24 04:50:20;;;;;;;0.52;0.52;;;25.70;67.50;;;;;;3887571;30;20615;-69
2022/08/24 04:53:04;;;;;;;0.20;0.20;;;25.70;67.50;;;;;;3897199;30;20063;-68
2022/08/24 04:55:49;;;;;;;0.63;0.63;;;25.70;67.50;;;;;;3886971;30;20134;-69
2022/08/24 04:58:33;;;;;;;0.45;0.20;;;25.70;67.50;;;;;;3895592;30;20060;-69
2022/08/24 05:01:18;;;;;;;0.00;0.00;;;25.70;67.50;;;;;;3886409;30;20516;-68
2022/08/24 05:04:02;;;;;;;0.10;0.10;;;25.70;67.50;;;;;;3896460;30;20418;-66
2022/08/24 05:06:43;;;;;;;0.15;0.15;;;25.70;67.90;;;;;;3896017;30;20548;-66
2022/08/24 05:09:24;;;;;;;0.20;0.20;;;25.70;67.90;;;;;;3896382;30;20213;-67
2022/08/24 05:12:06;;;;;;;;;;;25.60;67.70;;;;;;3899628;30;20474;-65
2022/08/24 05:14:53;;;;;;;0.20;0.20;;;25.70;67.60;;;;;;3904264;30;20436;-68
2022/08/24 05:17:34;;;;;;;0.10;0.10;;;25.60;67.60;;;;;;3899493;30;20070;-68
2022/08/24 05:20:15;;;;;;;0.28;0.28;;;25.60;67.50;;;;;;3900484;30;20194;-68
2022/08/24 05:22:59;;;;;;;0.28;0.28;;;25.60;67.50;;;;;;3898958;30;20056;-67
2022/08/24 05:25:45;;;;;;;0.75;0.75;;;25.60;67.50;;;;;;3892637;30;20059;-67
2022/08/24 05:28:26;;;;;;;0.00;0.00;;;25.60;67.60;;;;;;3904841;30;20853;-67
2022/08/24 05:31:12;;;;;;;0.10;0.10;;;25.60;67.60;;;;;;3898438;30;20118;-68
2022/08/24 05:33:55;;;;;;;0.32;0.32;;;25.60;67.60;;;;;;3890444;30;20085;-68
2022/08/24 05:36:40;;;;;;;0.15;0.15;;;25.60;67.70;;;;;;3900115;30;20060;-69
2022/08/24 05:39:29;;;;;;;0.28;0.28;;;25.60;69.90;;;;;;3898061;30;20060;-69
2022/08/24 05:42:12;;;;;;;0.88;0.88;;;25.60;74.20;;;;;;3898456;30;20091;-68
2022/08/24 05:44:59;;;;;;;0.00;0.00;;;25.60;76.90;;;;;;3898175;30;20130;-68
2022/08/24 05:47:43;;;;;;;0.93;0.93;;;25.70;77.90;;;;;;3897650;30;20056;-60
2022/08/24 05:50:44;;;;;;;18.83;2.05;;;25.70;77.60;;;;;;3899410;30;20060;-61
2022/08/24 05:53:26;;;;;;;1.80;0.85;;;25.70;77.70;;;;;;3908890;30;20060;-69
2022/08/24 05:56:10;;;;;;;4.85;4.13;;;25.60;76.60;;;;;;3902481;30;20203;-68
2022/08/24 05:58:51;;;;;;;1.02;1.02;;;25.70;76.50;;;;;;3902791;30;20059;-69
2022/08/24 06:01:33;;;;;;;8.57;2.30;;;25.60;74.70;;;;;;3912913;30;20110;-69
2022/08/24 06:04:16;;;;;;;0.00;0.00;;;25.70;73.70;;;;;;3913403;30;20067;-69
2022/08/24 06:06:57;;;;;;;0.10;0.10;;;25.70;72.90;;;;;;3902931;30;20059;-69
2022/08/24 06:09:39;;;;;;;;;;;25.60;72.30;;;;;;3903349;30;20525;-68
2022/08/24 06:12:20;;;;;;;0.10;0.10;;;25.70;72.10;;;;;;3902896;30;19979;-72
2022/08/24 06:15:01;;;;;;;1.85;1.30;;;25.70;71.60;;;;;;3913164;30;20098;-72
2022/08/24 06:17:43;;;;;;;0.35;0.35;;;25.60;71.30;;;;;;3913823;30;20059;-62
2022/08/24 06:20:25;;;;;;;30.98;1.13;;;25.60;71.20;;;;;;3901991;30;20131;-61
2022/08/24 06:23:07;;;;;;;0.98;0.98;;;25.70;71.10;;;;;;3901059;30;20122;-63
2022/08/24 06:28:59;;;;;;;1.40;1.38;;;25.70;72.40;;;;;;3902742;30;20060;-61
2022/08/24 06:31:42;;;;;;;0.00;0.00;;;25.80;72.40;;;;;;3898363;30;20150;-62
2022/08/24 06:34:24;;;;;;;8.02;0.98;;;25.80;72.10;;;;;;3902467;30;20103;-60
2022/08/24 06:37:07;;;;;;;0.32;0.32;;;25.90;72.10;;;;;;3901979;30;20071;-62
2022/08/24 06:39:48;;;;;;;0.00;0.00;;;25.90;72.10;;;;;;3902681;30;20067;-70
2022/08/24 06:42:35;;;;;;;0.17;0.17;;;25.90;72.00;;;;;;3902325;30;20059;-70
2022/08/24 06:45:29;;;;;;;0.25;0.25;;;26.00;72.00;;;;;;3912241;30;20141;-71
2022/08/24 06:48:11;;;;;;;0.10;0.10;;;26.00;71.90;;;;;;3902324;30;20064;-71
2022/08/24 06:50:52;;;;;;;0.50;0.50;;;26.00;72.80;;;;;;3892125;30;20712;-72
2022/08/24 06:53:36;;;;;;;0.00;0.00;;;26.00;71.90;;;;;;3902625;30;20148;-63
2022/08/24 06:56:18;;;;;;;0.00;0.00;;;26.10;72.00;;;;;;3902533;30;20055;-62
2022/08/24 06:59:02;;;;;;;0.88;0.88;;;26.10;72.00;;;;;;3901789;30;20206;-63
2022/08/24 07:01:43;;;;;;;0.20;0.20;;;26.20;72.10;;;;;;3906483;30;20086;-63
2022/08/24 07:04:26;;;;;;;0.03;0.03;;;26.30;71.80;;;;;;3901866;30;20056;-63
2022/08/24 07:07:08;;;;;;;0.85;0.85;;;26.30;71.70;;;;;;3912737;30;20226;-62
2022/08/24 07:09:50;;;;;;;0.98;0.98;;;26.30;71.50;;;;;;3911432;30;20226;-63
2022/08/24 07:12:31;;;;;;;0.93;0.93;;;26.30;71.30;;;;;;3912432;30;20139;-63
2022/08/24 07:15:12;;;;;;;1.30;1.30;;;26.40;71.30;;;;;;3912042;30;20059;-63
2022/08/24 07:17:57;;;;;;;0.17;0.17;;;26.40;71.10;;;;;;3901999;30;20060;-72
2022/08/24 07:20:38;;;;;;;0.00;0.00;;;26.40;71.00;;;;;;3912884;30;20064;-71
2022/08/24 07:23:31;;;;;;;0.25;0.25;;;26.50;70.90;;;;;;3912120;30;20063;-71
2022/08/24 07:26:19;;;;;;;0.68;0.68;;;26.50;70.80;;;;;;3912718;30;20063;-72
2022/08/24 07:29:05;;;;;;;0.52;0.52;;;26.60;70.70;;;;;;3910982;30;20060;-71
2022/08/24 07:31:59;;;;;;;0.10;0.10;;;26.60;70.60;;;;;;3901385;30;20062;-72
2022/08/24 07:34:48;;;;;;;1.60;0.55;;;26.60;70.40;;;;;;3901685;30;20067;-72
2022/08/24 07:37:29;;;;;;;0.20;0.20;;;26.70;71.30;;;;;;3910832;30;20195;-72
2022/08/24 07:40:21;;;;;;;3.83;0.52;;;26.70;70.20;;;;;;3911753;30;20571;-63
2022/08/24 07:43:04;;;;;;;0.45;0.45;;;26.70;70.10;;;;;;3902067;30;20056;-63
2022/08/24 07:45:45;;;;;;;0.35;0.35;;;26.70;70.00;;;;;;3901782;30;20393;-62
2022/08/24 07:48:27;;;;;;;1.00;0.35;;;26.70;69.80;;;;;;3912616;30;20059;-62
2022/08/24 07:51:11;;;;;;;0.00;0.00;;;26.70;69.70;;;;;;3887390;30;20074;-63
2022/08/24 07:53:54;;;;;;;0.00;0.00;;;26.70;69.60;;;;;;3897642;30;20118;-63
2022/08/24 07:56:41;;;;;;;0.20;0.20;;;26.80;69.50;;;;;;3886900;30;20068;-70
2022/08/24 07:59:24;;;;;;;0.05;0.05;;;26.80;69.30;;;;;;3893790;30;20546;-70
2022/08/24 08:02:07;;;;;;;0.93;0.93;;;26.80;69.20;;;;;;3901632;30;20066;-69
2022/08/24 08:04:48;;;;;;;0.10;0.10;;;26.80;69.10;;;;;;3901298;30;20481;-69
2022/08/24 08:07:32;;;;;;;1.42;1.33;;;26.80;69.00;;;;;;3901277;30;20153;-69
2022/08/24 08:10:14;;;;;;;7.82;1.98;;;26.80;68.90;;;;;;3900932;30;20059;-70
2022/08/24 08:12:55;;;;;;;0.45;0.45;;;26.80;68.80;;;;;;3901616;30;20137;-69
2022/08/24 08:15:37;;;;;;;0.00;0.00;;;26.80;68.70;;;;;;3912361;30;20055;-70
2022/08/24 08:18:23;;;;;;;0.35;0.35;;;26.90;68.70;;;;;;3910901;30;20060;-72
2022/08/24 08:21:05;;;;;;;0.47;0.45;;;26.90;68.70;;;;;;3901132;30;20059;-69
2022/08/24 08:26:50;;;;;;;0.00;0.00;;;26.90;68.60;;;;;;3900830;30;20067;-61
2022/08/24 08:29:51;;;;;;;;;;;26.90;68.40;;;;;;3890424;30;20158;-61
2022/08/24 08:32:33;;;;;;;0.00;0.00;;;26.90;68.30;;;;;;3896797;30;19933;-61
2022/08/24 08:35:15;;;;;;;0.10;0.10;;;27.00;68.30;;;;;;3897716;30;20410;-61
2022/08/24 08:38:00;;;;;;;0.15;0.15;;;27.00;68.30;;;;;;3886202;30;20059;-60
2022/08/24 08:40:54;;;;;;;0.28;0.28;;;27.00;68.20;;;;;;3900533;30;20389;-70
2022/08/24 08:43:42;;;;;;;0.20;0.20;;;27.00;68.00;;;;;;3899896;30;20064;-61
2022/08/24 08:46:38;;;;;;;0.00;0.00;;;27.00;67.80;;;;;;3900291;30;20079;-61
2022/08/24 08:50:02;;;;;;;0.00;0.00;;;27.00;67.70;;;;;;3899914;30;20057;-61
2022/08/24 08:53:16;;;;;;;0.00;0.00;;;27.10;67.70;;;;;;3896712;30;20413;-61
2022/08/24 08:56:09;;;;;;;2.15;0.52;;;27.10;67.50;;;;;;3886165;30;20060;-60
2022/08/24 08:59:01;;;;;;;0.10;0.10;;;27.10;67.40;;;;;;3886043;30;20121;-61
2022/08/24 09:02:06;;;;;;;0.00;0.00;;;27.20;67.40;;;;;;3896113;30;20197;-61
2022/08/24 09:05:25;;;;;;;0.00;0.00;;;27.20;67.20;;;;;;3895835;30;20083;-62
2022/08/24 09:08:17;;;;;;;0.00;0.00;;;27.20;67.00;;;;;;3911037;30;20072;-63
2022/08/24 09:11:07;;;;;;;0.63;0.63;;;27.30;66.80;;;;;;3884655;30;20079;-63
2022/08/24 09:14:12;;;;;;;0.00;0.00;;;27.30;66.70;;;;;;3886376;30;20203;-72
2022/08/24 09:17:16;;;;;;;0.00;0.00;;;27.30;66.50;;;;;;3885663;30;20056;-72
2022/08/24 09:20:18;;;;;;;0.10;0.10;;;27.30;66.30;;;;;;3892806;30;20060;-63
2022/08/24 09:23:09;;;;;;;0.00;0.00;;;27.40;66.20;;;;;;3895994;30;20402;-63
2022/08/24 09:26:02;;;;;;;0.00;0.00;;;27.40;66.00;;;;;;3895770;30;20184;-63
2022/08/24 09:28:53;;;;;;;0.30;0.30;;;27.40;65.90;;;;;;3884495;30;20460;-62
2022/08/24 09:31:59;;;;;;;0.25;0.25;;;27.50;65.70;;;;;;3897004;30;20068;-63
2022/08/24 09:34:55;;;;;;;0.47;0.47;;;27.50;65.50;;;;;;3885849;30;20083;-63
2022/08/24 09:37:56;;;;;;;0.08;0.08;;;27.50;65.30;;;;;;3896811;30;20059;-64
2022/08/24 09:40:59;;;;;;;0.20;0.20;;;27.60;65.20;;;;;;3896588;30;20062;-63
2022/08/24 09:44:06;;;;;;;0.32;0.32;;;27.60;65.00;;;;;;3889039;30;20052;-63
2022/08/24 09:47:22;;;;;;;0.85;0.85;;;27.60;64.70;;;;;;3896849;30;20056;-62
2022/08/24 09:50:25;;;;;;;0.00;0.00;;;27.60;64.60;;;;;;3896129;30;20572;-63
2022/08/24 09:53:30;;;;;;;0.00;0.00;;;27.70;64.50;;;;;;3896037;30;20109;-63
2022/08/24 09:56:27;;;;;;;0.00;0.00;;;27.80;64.40;;;;;;3894319;30;20217;-63
2022/08/24 09:59:24;;;;;;;0.00;0.00;;;27.80;64.20;;;;;;3883501;30;20061;-62
2022/08/24 10:02:26;;;;;;;0.15;0.15;;;27.80;64.00;;;;;;3885383;30;20060;-63
2022/08/24 10:05:18;;;;;;;0.13;0.13;;;27.90;63.90;;;;;;3887707;30;20184;-63
2022/08/24 10:08:07;;;;;;;0.00;0.00;;;27.80;63.60;;;;;;3899804;30;20063;-63
2022/08/24 10:10:54;;;;;;;0.20;0.20;;;27.90;63.60;;;;;;3897780;30;20430;-64
2022/08/24 10:13:50;;;;;;;0.20;0.20;;;27.90;63.50;;;;;;3899781;30;20064;-62
2022/08/24 10:16:40;;;;;;;0.13;0.13;;;27.90;63.30;;;;;;3885099;30;20087;-63
2022/08/24 10:19:47;;;;;;;0.90;0.90;;;28.00;63.20;;;;;;3883867;30;20068;-63
2022/08/24 10:22:49;;;;;;;0.05;0.05;;;28.00;63.10;;;;;;3885149;30;20391;-63
2022/08/24 10:25:37;;;;;;;0.00;0.00;;;28.10;63.00;;;;;;3897321;30;20150;-62
2022/08/24 10:28:39;;;;;;;0.15;0.15;;;28.10;62.80;;;;;;3898928;30;20111;-63
2022/08/24 10:31:31;;;;;;;0.20;0.20;;;28.10;62.70;;;;;;3898479;30;20075;-62
2022/08/24 10:34:32;;;;;;;0.00;0.00;;;28.20;62.60;;;;;;3898167;30;20079;-64
2022/08/24 10:37:44;;;;;;;0.10;0.10;;;28.20;62.50;;;;;;3899440;30;20067;-64
2022/08/24 10:40:33;;;;;;;;;;;28.20;62.30;;;;;;3899493;30;20064;-63
2022/08/24 10:43:35;;;;;;;0.17;0.17;;;28.30;62.40;;;;;;3899433;30;19934;-63
2022/08/24 10:46:45;;;;;;;0.00;0.00;;;28.20;62.10;;;;;;3899382;30;20417;-63
2022/08/24 10:49:56;;;;;;;0.10;0.10;;;28.30;62.00;;;;;;3897619;30;20063;-63
2022/08/24 10:52:49;;;;;;;;;;;28.30;61.90;;;;;;3899485;30;20064;-63
2022/08/24 10:55:33;;;;;;;0.22;0.22;;;28.40;61.90;;;;;;3898850;30;19934;-63
2022/08/24 10:58:48;;;;;;;0.00;0.00;;;28.40;61.80;;;;;;3899236;30;20164;-71
2022/08/24 11:01:33;;;;;;;0.00;0.00;;;28.40;61.70;;;;;;3898892;30;20064;-72
2022/08/24 11:04:27;;;;;;;0.75;0.75;;;28.40;61.50;;;;;;3887922;30;20063;-63
2022/08/24 11:07:17;;;;;;;0.00;0.00;;;28.50;61.50;;;;;;3898677;30;20115;-63
2022/08/24 11:10:00;;;;;;;0.00;0.00;;;28.50;61.40;;;;;;3909724;30;20063;-63
2022/08/24 11:12:43;;;;;;;0.03;0.03;;;28.50;61.30;;;;;;3912278;30;20515;-72
2022/08/24 11:15:26;;;;;;;0.00;0.00;;;28.50;61.20;;;;;;3912857;30;20063;-71
2022/08/24 11:18:07;;;;;;;0.55;0.32;;;28.60;61.20;;;;;;3912776;30;20068;-70
2022/08/24 11:20:54;;;;;;;0.52;0.40;;;28.60;61.10;;;;;;3911724;30;20107;-71
2022/08/24 11:23:36;;;;;;;0.00;0.00;;;28.60;61.00;;;;;;3912672;30;20067;-71
2022/08/24 11:26:21;;;;;;;0.30;0.30;;;28.60;60.90;;;;;;3913266;30;20060;-71
2022/08/24 11:29:05;;;;;;;0.00;0.00;;;28.60;61.00;;;;;;3912933;30;20235;-71
2022/08/24 11:31:52;;;;;;;0.00;0.00;;;28.70;60.90;;;;;;3885513;30;20067;-70
2022/08/24 11:34:36;;;;;;;0.00;0.00;;;28.70;60.70;;;;;;3898405;30;20099;-71
2022/08/24 11:37:23;;;;;;;0.00;0.00;;;28.70;60.70;;;;;;3898466;30;20165;-71
2022/08/24 11:40:09;;;;;;;0.00;0.00;;;28.70;60.60;;;;;;3906550;30;20137;-71
2022/08/24 11:43:06;;;;;;;1.42;1.00;;;28.80;60.70;;;;;;3910477;30;20563;-71
2022/08/24 11:46:01;;;;;;;0.00;0.00;;;28.80;60.60;;;;;;3912306;30;20063;-71
2022/08/24 11:48:54;;;;;;;0.00;0.00;;;28.80;60.50;;;;;;3912593;30;20078;-71
2022/08/24 11:51:46;;;;;;;0.00;0.00;;;28.90;60.60;;;;;;3911514;30;20059;-67
2022/08/24 11:54:38;;;;;;;0.10;0.10;;;28.90;60.40;;;;;;3912296;30;20422;-71
2022/08/24 11:57:38;;;;;;;0.10;0.10;;;28.90;60.40;;;;;;3912379;30;20068;-71
2022/08/24 12:00:21;;;;;;;0.15;0.15;;;29.00;60.20;;;;;;3910923;30;20063;-71
2022/08/24 12:03:10;;;;;;;0.10;0.10;;;29.00;59.60;;;;;;3912566;30;20129;-71
2022/08/24 12:05:58;;;;;;;0.00;0.00;;;29.00;60.00;;;;;;3912094;30;20191;-64
2022/08/24 12:08:45;;;;;;;0.05;0.05;;;29.10;60.00;;;;;;3900675;30;20073;-62
2022/08/24 12:11:39;;;;;;;0.10;0.10;;;29.10;60.00;;;;;;3888324;30;20064;-62
2022/08/24 12:14:26;;;;;;;0.05;0.05;;;29.10;59.90;;;;;;3897881;30;20076;-62
2022/08/24 12:17:16;;;;;;;0.40;0.40;;;29.20;59.80;;;;;;3896926;30;20059;-63
2022/08/24 12:20:04;;;;;;;0.00;0.00;;;29.20;59.80;;;;;;3893879;30;20052;-63
2022/08/24 12:22:46;;;;;;;0.00;0.00;;;29.20;59.80;;;;;;3912116;30;20048;-62
2022/08/24 12:28:34;;;;;;;0.40;0.40;;;29.30;59.80;;;;;;3911912;30;19943;-62
2022/08/24 12:31:20;;;;;;;0.00;0.00;;;29.30;59.60;;;;;;3908484;30;20142;-62
2022/08/24 12:34:08;;;;;;;0.25;0.25;;;29.30;59.60;;;;;;3911513;30;20063;-62
2022/08/24 12:36:58;;;;;;;0.00;0.00;;;29.40;59.70;;;;;;3900674;30;20063;-62
2022/08/24 12:39:45;;;;;;;0.00;0.00;;;29.40;59.60;;;;;;3910002;30;20583;-62
2022/08/24 12:42:34;;;;;;;0.00;0.00;;;29.40;59.50;;;;;;3900946;30;20056;-70
2022/08/24 12:45:21;;;;;;;0.00;0.00;;;29.40;59.50;;;;;;3909604;30;20068;-71
2022/08/24 12:48:09;;;;;;;0.08;0.08;;;29.50;59.60;;;;;;3910692;30;20060;-71
2022/08/24 12:51:06;;;;;;;0.00;0.00;;;29.40;59.50;;;;;;3911412;30;20055;-71
2022/08/24 12:54:08;;;;;;;0.00;0.00;;;29.40;59.50;;;;;;3902717;30;20599;-70
2022/08/24 12:57:21;;;;;;;;;;;29.40;59.50;;;;;;3911169;30;20074;-62
2022/08/24 13:00:10;;;;;;;0.00;0.00;;;29.40;59.60;;;;;;3868722;30;19939;-62
2022/08/24 13:03:00;;;;;;;0.00;0.00;;;29.30;59.40;;;;;;3901017;30;20060;-62
2022/08/24 13:05:45;;;;;;;0.00;0.00;;;29.30;59.40;;;;;;3911339;30;20067;-63
2022/08/24 13:08:35;;;;;;;0.00;0.00;;;29.30;60.20;;;;;;3911093;30;20401;-62
2022/08/24 13:11:29;;;;;;;0.00;0.00;;;29.30;59.50;;;;;;3911127;30;20194;-63
2022/08/24 13:14:19;;;;;;;0.00;0.00;;;29.30;59.40;;;;;;3910822;30;20063;-63
2022/08/24 13:17:13;;;;;;;0.00;0.00;;;29.40;59.50;;;;;;3911948;30;20141;-62
2022/08/24 13:20:22;;;;;;;0.00;0.00;;;29.30;59.50;;;;;;3909951;30;20076;-63
2022/08/24 13:23:14;;;;;;;0.00;0.00;;;29.40;59.60;;;;;;3910910;30;20059;-62
2022/08/24 13:25:59;;;;;;;0.00;0.00;;;29.40;59.50;;;;;;3911372;30;20067;-62
2022/08/24 13:28:44;;;;;;;0.10;0.10;;;29.40;59.50;;;;;;3911474;30;20496;-70
2022/08/24 13:31:31;;;;;;;0.20;0.20;;;29.40;59.50;;;;;;3900334;30;20059;-70
2022/08/24 13:34:39;;;;;;;0.00;0.00;;;29.50;59.50;;;;;;3911282;30;20068;-71
2022/08/24 13:37:26;;;;;;;0.00;0.00;;;29.50;59.50;;;;;;3888316;30;20126;-62
2022/08/24 13:40:19;;;;;;;0.00;0.00;;;29.50;59.40;;;;;;3911578;30;20433;-69
2022/08/24 13:43:13;;;;;;;0.00;0.00;;;29.50;59.30;;;;;;3913397;30;20475;-70
2022/08/24 13:45:59;;;;;;;0.00;0.00;;;29.50;59.30;;;;;;3913911;30;20056;-70
2022/08/24 13:48:53;;;;;;;0.00;0.00;;;29.50;59.20;;;;;;3900209;30;20445;-70
2022/08/24 13:51:44;;;;;;;0.00;0.00;;;29.50;59.10;;;;;;3888640;30;20056;-69
2022/08/24 13:54:31;;;;;;;;;;;29.50;59.10;;;;;;3900289;30;20074;-70
2022/08/24 13:57:28;;;;;;;0.22;0.22;;;29.50;59.10;;;;;;3906506;30;20039;-70
2022/08/24 14:00:32;;;;;;;0.00;0.00;;;29.60;59.10;;;;;;3916801;30;20063;-70
2022/08/24 14:03:38;;;;;;;0.20;0.20;;;29.60;59.10;;;;;;3926940;30;20427;-70
2022/08/24 14:06:40;;;;;;;0.00;0.00;;;29.60;59.10;;;;;;3928204;30;20063;-70
2022/08/24 14:09:36;;;;;;;0.00;0.00;;;29.60;59.10;;;;;;3903187;30;20109;-70
2022/08/24 14:12:45;;;;;;;0.03;0.03;;;29.60;59.70;;;;;;3911106;30;20060;-70
2022/08/24 14:15:45;;;;;;;0.00;0.00;;;29.60;59.00;;;;;;3906021;30;20444;-71
2022/08/24 14:18:36;;;;;;;0.00;0.00;;;29.60;58.90;;;;;;3913756;30;20058;-70
2022/08/24 14:21:25;;;;;;;0.00;0.00;;;29.60;58.90;;;;;;3899055;30;20764;-70
2022/08/24 14:24:13;;;;;;;0.20;0.20;;;29.60;58.80;;;;;;3892722;30;20064;-71
2022/08/24 14:27:10;;;;;;;0.00;0.00;;;29.60;58.90;;;;;;3909286;30;20059;-61
2022/08/24 14:30:43;;;;;;;0.00;0.00;;;29.60;59.00;;;;;;3911468;30;20064;-61
2022/08/24 14:33:32;;;;;;;0.05;0.05;;;29.70;59.00;;;;;;3912177;30;20055;-61
2022/08/24 14:36:20;;;;;;;0.10;0.10;;;29.60;58.90;;;;;;3904935;30;20051;-61
2022/08/24 14:39:09;;;;;;;0.00;0.00;;;29.60;59.60;;;;;;3893756;30;20062;-61
2022/08/24 14:42:00;;;;;;;0.00;0.00;;;29.60;58.90;;;;;;3890480;30;20064;-71
2022/08/24 14:45:02;;;;;;;0.08;0.08;;;29.60;58.90;;;;;;3882163;30;20141;-68
2022/08/24 14:47:58;;;;;;;0.20;0.20;;;29.60;58.90;;;;;;3890656;30;20060;-70
2022/08/24 14:50:48;;;;;;;2.17;0.60;;;29.60;58.90;;;;;;3895193;30;20060;-62